createdAt,value
2022-08-17T00:01:00.597Z,24.40
2022-08-17T00:02:25.565Z,24.30
2022-08-17T00:03:32.174Z,24.30
2022-08-17T00:04:34.789Z,24.20
2022-08-17T00:05:43.868Z,24.20
2022-08-17T00:06:49.055Z,24.20
2022-08-17T00:07:53.112Z,23.70
2022-08-17T00:08:59.648Z,24.20
2022-08-17T00:10:01.902Z,24.30
2022-08-17T00:11:09.541Z,24.20
2022-08-17T00:12:51.364Z,24.20
2022-08-17T00:13:41.747Z,24.20
2022-08-17T00:14:44.341Z,24.10
2022-08-17T00:15:48.609Z,24.10
2022-08-17T00:16:56.713Z,24.10
2022-08-17T00:18:01.239Z,24.10
2022-08-17T00:19:08.880Z,24.00
2022-08-17T00:20:13.562Z,24.00
2022-08-17T00:21:23.823Z,23.90
2022-08-17T00:22:32.379Z,23.90
2022-08-17T00:23:44.343Z,23.80
2022-08-17T00:24:50.715Z,23.90
2022-08-17T00:25:55.000Z,23.80
2022-08-17T00:26:57.403Z,23.90
2022-08-17T00:28:00.981Z,24.00
2022-08-17T00:29:05.042Z,24.00
2022-08-17T00:30:12.114Z,23.90
2022-08-17T00:31:14.861Z,24.00
2022-08-17T00:33:12.527Z,24.00
2022-08-17T00:33:45.409Z,24.00
2022-08-17T00:34:48.147Z,24.00
2022-08-17T00:35:51.602Z,24.10
2022-08-17T00:36:54.012Z,24.10
2022-08-17T00:37:57.199Z,24.10
2022-08-17T00:38:59.435Z,24.20
2022-08-17T00:40:02.975Z,24.30
2022-08-17T00:41:09.445Z,24.30
2022-08-17T00:42:15.399Z,24.40
2022-08-17T00:43:22.220Z,24.40
2022-08-17T00:44:30.309Z,24.30
2022-08-17T00:45:34.760Z,24.20
2022-08-17T00:46:42.337Z,24.30
2022-08-17T00:47:44.902Z,24.20
2022-08-17T00:48:49.241Z,24.20
2022-08-17T00:49:51.936Z,24.10
2022-08-17T00:51:02.724Z,24.10
2022-08-17T00:52:15.722Z,24.00
2022-08-17T00:53:20.330Z,23.90
2022-08-17T00:54:28.197Z,23.90
2022-08-17T00:55:30.684Z,23.90
2022-08-17T00:56:38.889Z,23.80
2022-08-17T00:57:51.264Z,23.90
2022-08-17T00:58:59.004Z,23.90
2022-08-17T01:00:09.153Z,24.00
2022-08-17T01:01:21.239Z,24.00
2022-08-17T01:02:25.650Z,24.10
2022-08-17T01:03:31.157Z,24.10
2022-08-17T01:04:33.957Z,24.10
2022-08-17T01:05:42.334Z,24.10
2022-08-17T01:06:47.071Z,24.20
2022-08-17T01:07:51.623Z,24.20
2022-08-17T01:08:57.299Z,24.30
2022-08-17T01:10:07.609Z,24.30
2022-08-17T01:11:32.957Z,24.30
2022-08-17T01:12:37.326Z,24.40
2022-08-17T01:13:43.206Z,24.40
2022-08-17T01:14:46.091Z,24.40
2022-08-17T01:16:00.332Z,24.40
2022-08-17T01:17:02.699Z,24.40
2022-08-17T01:18:08.328Z,24.40
2022-08-17T01:19:20.278Z,24.40
2022-08-17T01:20:22.733Z,24.40
2022-08-17T01:21:34.405Z,24.40
2022-08-17T01:22:38.457Z,24.40
2022-08-17T01:23:42.517Z,24.30
2022-08-17T01:24:50.080Z,24.30
2022-08-17T01:25:57.636Z,24.30
2022-08-17T01:26:59.960Z,24.30
2022-08-17T01:28:05.624Z,24.30
2022-08-17T01:29:08.370Z,24.20
2022-08-17T01:30:58.120Z,24.10
2022-08-17T01:31:43.702Z,24.10
2022-08-17T01:32:46.236Z,23.90
2022-08-17T01:33:50.129Z,23.90
2022-08-17T01:34:53.347Z,23.80
2022-08-17T01:35:57.070Z,23.70
2022-08-17T01:37:00.490Z,23.70
2022-08-17T01:38:05.683Z,23.70
2022-08-17T01:39:15.407Z,23.70
2022-08-17T01:40:26.627Z,23.70
2022-08-17T01:41:29.392Z,23.70
2022-08-17T01:42:38.552Z,23.70
2022-08-17T01:43:46.882Z,23.70
2022-08-17T01:44:55.408Z,23.70
2022-08-17T01:46:03.726Z,23.60
2022-08-17T01:47:06.776Z,23.50
2022-08-17T01:48:10.433Z,23.50
2022-08-17T01:49:13.192Z,23.50
2022-08-17T01:50:21.402Z,23.50
2022-08-17T01:51:25.515Z,23.40
2022-08-17T01:52:28.095Z,23.40
2022-08-17T01:53:39.650Z,23.40
2022-08-17T01:54:47.229Z,23.40
2022-08-17T01:55:54.783Z,23.40
2022-08-17T01:56:57.156Z,23.40
2022-08-17T01:58:02.141Z,23.40
2022-08-17T01:59:05.111Z,23.40
2022-08-17T02:00:11.214Z,23.40
2022-08-17T02:01:15.291Z,23.40
2022-08-17T02:02:31.069Z,23.40
2022-08-17T02:03:36.726Z,23.40
2022-08-17T02:04:39.930Z,23.50
2022-08-17T02:05:42.218Z,23.50
2022-08-17T02:06:53.745Z,23.50
2022-08-17T02:08:00.363Z,23.50
2022-08-17T02:09:06.407Z,23.40
2022-08-17T02:10:19.813Z,23.40
2022-08-17T02:11:23.622Z,23.30
2022-08-17T02:12:38.865Z,23.30
2022-08-17T02:13:43.858Z,23.30
2022-08-17T02:14:46.562Z,23.20
2022-08-17T02:15:49.845Z,23.30
2022-08-17T02:16:53.159Z,23.30
2022-08-17T02:17:56.404Z,23.30
2022-08-17T02:18:59.808Z,23.30
2022-08-17T02:20:03.384Z,23.40
2022-08-17T02:21:07.199Z,23.40
2022-08-17T02:22:11.967Z,23.30
2022-08-17T02:23:14.499Z,23.40
2022-08-17T02:25:01.018Z,23.30
2022-08-17T02:25:48.934Z,23.40
2022-08-17T02:26:51.746Z,23.40
2022-08-17T02:27:54.921Z,23.30
2022-08-17T02:28:57.244Z,23.30
2022-08-17T02:30:00.609Z,23.30
2022-08-17T02:33:41.914Z,22.80
2022-08-17T02:34:47.498Z,23.30
2022-08-17T02:35:49.849Z,23.40
2022-08-17T02:36:54.029Z,23.40
2022-08-17T02:37:56.388Z,23.40
2022-08-17T02:39:00.341Z,23.50
2022-08-17T02:40:05.397Z,23.50
2022-08-17T02:41:10.088Z,23.60
2022-08-17T02:42:13.722Z,23.60
2022-08-17T02:43:17.723Z,23.60
2022-08-17T02:44:39.359Z,23.60
2022-08-17T02:45:44.210Z,23.70
2022-08-17T02:46:46.470Z,23.60
2022-08-17T02:47:51.213Z,23.80
2022-08-17T02:48:54.051Z,23.70
2022-08-17T02:49:57.378Z,23.60
2022-08-17T02:51:00.560Z,23.60
2022-08-17T02:52:05.815Z,23.70
2022-08-17T02:53:08.340Z,23.70
2022-08-17T02:54:40.290Z,23.70
2022-08-17T02:55:38.561Z,23.60
2022-08-17T02:56:41.962Z,23.60
2022-08-17T02:57:44.947Z,23.60
2022-08-17T02:58:48.391Z,23.70
2022-08-17T02:59:50.967Z,23.70
2022-08-17T03:00:54.290Z,23.70
2022-08-17T03:01:56.887Z,23.70
2022-08-17T03:03:00.333Z,23.70
2022-08-17T03:04:02.922Z,23.70
2022-08-17T03:05:07.231Z,23.70
2022-08-17T03:06:10.254Z,23.70
2022-08-17T03:07:13.586Z,23.70
2022-08-17T03:08:16.171Z,23.70
2022-08-17T03:09:19.656Z,23.70
2022-08-17T03:10:22.447Z,23.70
2022-08-17T03:11:27.120Z,23.60
2022-08-17T03:12:33.849Z,23.60
2022-08-17T03:13:37.224Z,23.60
2022-08-17T03:14:42.010Z,23.60
2022-08-17T03:15:47.809Z,23.60
2022-08-17T03:16:50.313Z,23.60
2022-08-17T03:17:53.873Z,23.60
2022-08-17T03:18:56.251Z,23.60
2022-08-17T03:19:59.975Z,23.60
2022-08-17T03:21:04.601Z,23.50
2022-08-17T03:22:37.059Z,23.50
2022-08-17T03:23:33.766Z,23.50
2022-08-17T03:24:36.972Z,23.40
2022-08-17T03:25:43.484Z,23.40
2022-08-17T03:26:48.668Z,23.20
2022-08-17T03:27:51.481Z,23.30
2022-08-17T03:28:54.913Z,23.30
2022-08-17T03:29:57.201Z,23.30
2022-08-17T03:31:00.535Z,23.30
2022-08-17T03:32:11.359Z,23.30
2022-08-17T03:33:17.108Z,23.30
2022-08-17T03:34:19.925Z,23.40
2022-08-17T03:35:27.481Z,23.40
2022-08-17T03:36:30.696Z,23.40
2022-08-17T03:37:38.164Z,23.40
2022-08-17T03:38:41.929Z,23.40
2022-08-17T03:39:48.258Z,23.30
2022-08-17T03:40:56.705Z,23.30
2022-08-17T03:42:09.128Z,23.30
2022-08-17T03:43:34.589Z,23.30
2022-08-17T03:44:36.910Z,23.40
2022-08-17T03:45:58.914Z,23.40
2022-08-17T03:47:19.708Z,23.40
2022-08-17T03:48:49.724Z,23.40
2022-08-17T03:50:11.364Z,23.40
2022-08-17T03:51:39.022Z,23.30
2022-08-17T03:53:00.530Z,23.40
2022-08-17T03:54:21.335Z,23.40
2022-08-17T03:55:53.730Z,23.40
2022-08-17T03:57:04.189Z,23.30
2022-08-17T03:58:07.725Z,23.40
2022-08-17T03:59:22.222Z,23.40
2022-08-17T04:00:27.794Z,23.40
2022-08-17T04:01:30.648Z,23.50
2022-08-17T04:02:35.415Z,23.50
2022-08-17T04:03:37.632Z,23.50
2022-08-17T04:04:40.858Z,23.50
2022-08-17T04:05:44.103Z,23.60
2022-08-17T04:06:50.256Z,23.60
2022-08-17T04:07:52.599Z,23.70
2022-08-17T04:08:55.791Z,23.70
2022-08-17T04:09:59.673Z,23.70
2022-08-17T04:11:02.305Z,23.80
2022-08-17T04:12:07.074Z,23.90
2022-08-17T04:13:11.071Z,23.90
2022-08-17T04:14:14.467Z,24.70
2022-08-17T04:15:18.311Z,24.00
2022-08-17T04:16:21.692Z,24.00
2022-08-17T04:17:27.128Z,23.90
2022-08-17T04:18:30.419Z,24.00
2022-08-17T04:19:35.824Z,23.90
2022-08-17T04:20:39.031Z,23.90
2022-08-17T04:21:41.797Z,23.80
2022-08-17T04:22:57.971Z,23.70
2022-08-17T04:24:00.285Z,23.80
2022-08-17T04:25:07.635Z,23.80
2022-08-17T04:26:10.137Z,23.80
2022-08-17T04:27:33.818Z,23.80
2022-08-17T04:28:38.432Z,23.90
2022-08-17T04:29:54.352Z,24.00
2022-08-17T04:30:59.186Z,24.00
2022-08-17T04:32:03.060Z,24.10
2022-08-17T04:33:09.802Z,24.20
2022-08-17T04:34:12.903Z,24.20
2022-08-17T04:35:20.039Z,24.30
2022-08-17T04:36:23.262Z,24.40
2022-08-17T04:37:25.501Z,24.40
2022-08-17T04:38:31.356Z,24.40
2022-08-17T04:39:34.077Z,24.40
2022-08-17T04:40:55.665Z,24.40
2022-08-17T04:42:06.915Z,24.40
2022-08-17T04:43:13.787Z,24.40
2022-08-17T04:44:27.265Z,24.40
2022-08-17T04:45:54.951Z,24.50
2022-08-17T04:46:59.366Z,24.60
2022-08-17T04:48:01.850Z,24.60
2022-08-17T04:49:07.751Z,24.70
2022-08-17T04:50:10.476Z,24.70
2022-08-17T04:51:17.724Z,24.80
2022-08-17T04:52:32.326Z,24.80
2022-08-17T04:53:54.169Z,24.90
2022-08-17T04:54:58.041Z,25.00
2022-08-17T04:56:00.273Z,25.10
2022-08-17T04:57:03.765Z,25.20
2022-08-17T04:58:06.446Z,25.20
2022-08-17T04:59:14.077Z,25.30
2022-08-17T05:00:17.978Z,25.40
2022-08-17T05:01:24.540Z,25.40
2022-08-17T05:02:30.396Z,25.50
2022-08-17T05:03:33.587Z,25.50
2022-08-17T05:04:36.840Z,25.50
2022-08-17T05:05:43.193Z,25.60
2022-08-17T05:06:47.270Z,25.60
2022-08-17T05:07:51.786Z,25.70
2022-08-17T05:08:55.596Z,25.90
2022-08-17T05:09:57.831Z,25.90
2022-08-17T05:11:01.344Z,26.00
2022-08-17T05:12:06.042Z,26.00
2022-08-17T05:13:12.484Z,26.10
2022-08-17T05:14:16.216Z,26.10
2022-08-17T05:15:19.848Z,26.20
2022-08-17T05:16:25.099Z,26.20
2022-08-17T05:17:27.502Z,26.30
2022-08-17T05:18:32.546Z,26.30
2022-08-17T05:19:34.922Z,26.30
2022-08-17T05:20:41.792Z,26.40
2022-08-17T05:21:45.851Z,26.80
2022-08-17T05:22:51.387Z,26.50
2022-08-17T05:23:58.400Z,26.60
2022-08-17T05:25:02.754Z,26.60
2022-08-17T05:26:06.247Z,26.70
2022-08-17T05:27:16.759Z,26.80
2022-08-17T05:28:27.434Z,26.90
2022-08-17T05:29:35.265Z,26.90
2022-08-17T05:30:42.198Z,27.00
2022-08-17T05:31:45.326Z,27.00
2022-08-17T05:32:55.916Z,27.10
2022-08-17T05:33:59.483Z,27.10
2022-08-17T05:35:01.849Z,27.00
2022-08-17T05:36:08.089Z,27.10
2022-08-17T05:37:10.460Z,27.10
2022-08-17T05:38:15.034Z,27.00
2022-08-17T05:39:18.334Z,27.10
2022-08-17T05:40:22.075Z,27.20
2022-08-17T05:41:25.296Z,27.20
2022-08-17T05:42:27.857Z,27.30
2022-08-17T05:43:34.000Z,27.30
2022-08-17T05:44:36.212Z,27.20
2022-08-17T05:45:55.412Z,27.10
2022-08-17T05:47:01.935Z,27.10
2022-08-17T05:48:04.857Z,27.60
2022-08-17T05:49:09.886Z,27.20
2022-08-17T05:50:26.057Z,26.60
2022-08-17T05:51:55.685Z,27.20
2022-08-17T05:53:06.587Z,27.20
2022-08-17T05:54:39.667Z,27.30
2022-08-17T05:55:51.810Z,27.40
2022-08-17T05:57:14.084Z,27.50
2022-08-17T05:58:29.449Z,27.60
2022-08-17T05:59:44.755Z,27.70
2022-08-17T06:01:04.152Z,27.80
2022-08-17T06:02:18.957Z,27.80
2022-08-17T06:03:43.113Z,27.70
2022-08-17T06:05:02.883Z,27.50
2022-08-17T06:06:31.131Z,27.50
2022-08-17T06:07:47.039Z,27.30
2022-08-17T06:08:59.256Z,27.10
2022-08-17T06:10:13.953Z,27.00
2022-08-17T06:11:27.003Z,26.90
2022-08-17T06:12:44.138Z,26.70
2022-08-17T06:14:09.382Z,26.60
2022-08-17T06:15:26.381Z,26.60
2022-08-17T06:16:36.784Z,26.60
2022-08-17T06:17:40.239Z,26.20
2022-08-17T06:18:55.212Z,26.80
2022-08-17T06:20:03.069Z,27.00
2022-08-17T06:21:13.642Z,27.10
2022-08-17T06:22:23.082Z,27.20
2022-08-17T06:23:30.931Z,27.30
2022-08-17T06:24:43.382Z,27.40
2022-08-17T06:25:53.258Z,27.50
2022-08-17T06:27:02.130Z,27.60
2022-08-17T06:28:13.926Z,27.80
2022-08-17T06:29:29.900Z,27.80
2022-08-17T06:30:58.327Z,27.90
2022-08-17T06:32:12.756Z,28.00
2022-08-17T06:33:26.406Z,27.90
2022-08-17T06:34:29.910Z,28.00
2022-08-17T06:35:40.680Z,28.00
2022-08-17T06:37:00.629Z,28.00
2022-08-17T06:38:38.093Z,28.00
2022-08-17T06:39:51.581Z,27.90
2022-08-17T06:41:09.644Z,27.90
2022-08-17T06:43:02.424Z,27.90
2022-08-17T06:44:00.822Z,27.80
2022-08-17T06:45:08.558Z,27.80
2022-08-17T06:46:22.692Z,27.70
2022-08-17T06:47:32.845Z,27.70
2022-08-17T06:48:44.588Z,27.60
2022-08-17T06:49:55.699Z,27.70
2022-08-17T06:51:05.951Z,27.70
2022-08-17T06:52:42.197Z,27.80
2022-08-17T06:53:48.534Z,27.80
2022-08-17T06:55:02.019Z,28.10
2022-08-17T06:56:08.730Z,28.20
2022-08-17T06:57:18.624Z,28.20
2022-08-17T06:58:28.920Z,28.20
2022-08-17T06:59:55.586Z,28.30
2022-08-17T07:01:07.037Z,28.40
2022-08-17T07:02:29.483Z,28.40
2022-08-17T07:03:54.690Z,28.50
2022-08-17T07:05:01.820Z,28.60
2022-08-17T07:06:09.913Z,28.60
2022-08-17T07:07:32.593Z,28.70
2022-08-17T07:08:52.413Z,28.80
2022-08-17T07:10:00.030Z,28.80
2022-08-17T07:11:07.921Z,28.90
2022-08-17T07:12:16.063Z,28.90
2022-08-17T07:13:38.570Z,28.20
2022-08-17T07:14:51.797Z,28.80
2022-08-17T07:16:04.793Z,28.80
2022-08-17T07:17:12.990Z,28.90
2022-08-17T07:18:15.660Z,28.90
2022-08-17T07:19:24.794Z,28.90
2022-08-17T07:20:28.561Z,28.80
2022-08-17T07:21:46.054Z,29.00
2022-08-17T07:23:00.239Z,29.00
2022-08-17T07:24:29.715Z,29.10
2022-08-17T07:25:35.244Z,29.20
2022-08-17T07:26:38.919Z,29.40
2022-08-17T07:27:51.109Z,29.40
2022-08-17T07:28:56.483Z,29.50
2022-08-17T07:30:10.331Z,29.50
2022-08-17T07:31:17.131Z,29.60
2022-08-17T07:32:28.197Z,29.70
2022-08-17T07:33:36.949Z,29.60
2022-08-17T07:35:16.344Z,29.30
2022-08-17T07:36:30.106Z,29.00
2022-08-17T07:37:34.363Z,28.80
2022-08-17T07:38:57.775Z,29.10
2022-08-17T07:40:15.121Z,28.60
2022-08-17T07:41:22.159Z,28.50
2022-08-17T07:42:24.508Z,28.40
2022-08-17T07:43:29.583Z,28.40
2022-08-17T07:44:54.604Z,28.30
2022-08-17T07:46:21.087Z,28.10
2022-08-17T07:47:42.495Z,28.00
2022-08-17T07:48:50.758Z,27.90
2022-08-17T07:49:54.040Z,27.80
2022-08-17T07:50:57.439Z,28.00
2022-08-17T07:52:47.725Z,27.80
2022-08-17T07:53:31.543Z,27.80
2022-08-17T07:54:37.548Z,27.90
2022-08-17T07:55:41.878Z,28.00
2022-08-17T07:56:48.222Z,28.20
2022-08-17T07:57:57.503Z,28.30
2022-08-17T07:59:14.419Z,28.40
2022-08-17T08:00:23.938Z,28.20
2022-08-17T08:01:39.753Z,28.40
2022-08-17T08:02:48.440Z,28.50
2022-08-17T08:03:52.443Z,28.70
2022-08-17T08:05:06.547Z,28.80
2022-08-17T08:06:23.039Z,29.00
2022-08-17T08:07:31.951Z,29.20
2022-08-17T08:08:42.796Z,29.40
2022-08-17T08:10:00.207Z,29.50
2022-08-17T08:11:09.740Z,29.70
2022-08-17T08:12:33.344Z,29.80
2022-08-17T08:13:42.801Z,29.90
2022-08-17T08:14:56.287Z,30.00
2022-08-17T08:16:20.874Z,30.00
2022-08-17T08:17:27.888Z,30.10
2022-08-17T08:18:55.015Z,30.10
2022-08-17T08:20:00.274Z,30.10
2022-08-17T08:21:09.437Z,30.30
2022-08-17T08:22:22.474Z,30.30
2022-08-17T08:23:44.227Z,30.20
2022-08-17T08:25:07.418Z,30.10
2022-08-17T08:26:19.284Z,29.90
2022-08-17T08:27:34.979Z,29.80
2022-08-17T08:28:49.987Z,29.90
2022-08-17T08:30:05.310Z,29.60
2022-08-17T08:31:24.449Z,29.50
2022-08-17T08:32:48.259Z,29.40
2022-08-17T08:35:00.187Z,29.30
2022-08-17T08:35:45.473Z,29.20
2022-08-17T08:37:17.125Z,29.20
2022-08-17T08:38:40.387Z,29.10
2022-08-17T08:39:55.592Z,28.90
2022-08-17T08:41:16.330Z,28.90
2022-08-17T08:42:37.329Z,28.70
2022-08-17T08:43:53.268Z,28.70
2022-08-17T08:45:10.981Z,28.70
2022-08-17T08:46:26.786Z,28.70
2022-08-17T08:48:05.070Z,28.70
2022-08-17T08:50:01.857Z,28.80
2022-08-17T08:51:09.811Z,29.00
2022-08-17T08:52:32.330Z,29.10
2022-08-17T08:53:49.916Z,29.10
2022-08-17T08:55:00.767Z,29.10
2022-08-17T08:56:11.895Z,29.00
2022-08-17T08:57:26.688Z,29.00
2022-08-17T08:58:44.463Z,28.90
2022-08-17T09:00:03.859Z,28.90
2022-08-17T09:01:19.532Z,28.90
2022-08-17T09:02:39.725Z,29.10
2022-08-17T09:04:18.358Z,29.20
2022-08-17T09:05:40.159Z,29.20
2022-08-17T09:06:59.127Z,29.10
2022-08-17T09:08:13.755Z,29.20
2022-08-17T09:09:33.500Z,29.30
2022-08-17T09:10:57.886Z,29.50
2022-08-17T09:12:09.483Z,29.60
2022-08-17T09:13:28.266Z,29.80
2022-08-17T09:14:45.272Z,29.90
2022-08-17T09:15:59.423Z,30.00
2022-08-17T09:17:12.687Z,30.20
2022-08-17T09:19:01.893Z,30.20
2022-08-17T09:19:53.985Z,30.20
2022-08-17T09:21:01.106Z,30.30
2022-08-17T09:22:17.584Z,30.40
2022-08-17T09:23:32.582Z,30.30
2022-08-17T09:24:44.153Z,30.40
2022-08-17T09:25:56.325Z,30.40
2022-08-17T09:27:07.568Z,30.50
2022-08-17T09:28:19.368Z,30.50
2022-08-17T09:29:27.084Z,30.40
2022-08-17T09:30:41.550Z,30.40
2022-08-17T09:31:56.945Z,30.50
2022-08-17T09:33:07.770Z,30.40
2022-08-17T09:34:15.246Z,30.30
2022-08-17T09:35:25.162Z,30.20
2022-08-17T09:36:46.590Z,30.00
2022-08-17T09:38:03.887Z,29.80
2022-08-17T09:39:13.397Z,29.70
2022-08-17T09:40:24.502Z,29.60
2022-08-17T09:41:38.659Z,29.50
2022-08-17T09:42:57.072Z,29.50
2022-08-17T09:44:23.010Z,29.40
2022-08-17T09:45:35.661Z,29.30
2022-08-17T09:46:44.031Z,29.20
2022-08-17T09:47:54.418Z,29.20
2022-08-17T09:49:07.363Z,29.10
2022-08-17T09:50:17.479Z,29.00
2022-08-17T09:51:30.782Z,29.00
2022-08-17T09:52:33.289Z,29.00
2022-08-17T09:53:39.113Z,29.00
2022-08-17T09:54:44.375Z,29.10
2022-08-17T09:56:06.497Z,29.20
2022-08-17T09:57:32.591Z,29.30
2022-08-17T09:58:51.486Z,29.50
2022-08-17T10:00:13.273Z,29.70
2022-08-17T10:01:30.604Z,29.80
2022-08-17T10:03:03.309Z,29.90
2022-08-17T10:04:38.793Z,30.10
2022-08-17T10:05:46.710Z,30.20
2022-08-17T10:06:59.505Z,30.20
2022-08-17T10:08:09.434Z,30.20
2022-08-17T10:09:23.122Z,30.10
2022-08-17T10:10:33.718Z,30.10
2022-08-17T10:12:06.710Z,30.10
2022-08-17T10:13:21.094Z,30.10
2022-08-17T10:14:44.016Z,30.10
2022-08-17T10:15:55.051Z,30.10
2022-08-17T10:17:08.839Z,30.10
2022-08-17T10:18:32.046Z,30.10
2022-08-17T10:19:44.160Z,30.30
2022-08-17T10:21:16.295Z,30.20
2022-08-17T10:22:46.260Z,30.10
2022-08-17T10:24:24.872Z,30.00
2022-08-17T10:25:55.127Z,29.80
2022-08-17T10:27:04.721Z,29.70
2022-08-17T10:28:15.816Z,29.60
2022-08-17T10:29:30.238Z,29.60
2022-08-17T10:31:10.455Z,29.50
2022-08-17T10:32:28.749Z,29.50
2022-08-17T10:33:59.533Z,29.30
2022-08-17T10:35:33.998Z,29.30
2022-08-17T10:36:49.957Z,29.30
2022-08-17T10:38:15.762Z,29.30
2022-08-17T10:39:31.878Z,29.40
2022-08-17T10:40:45.490Z,29.40
2022-08-17T10:41:55.107Z,29.40
2022-08-17T10:43:12.190Z,29.50
2022-08-17T10:44:39.451Z,29.50
2022-08-17T10:46:09.450Z,29.50
2022-08-17T10:47:19.845Z,29.50
2022-08-17T10:48:29.630Z,29.50
2022-08-17T10:49:35.213Z,29.50
2022-08-17T10:50:49.588Z,28.90
2022-08-17T10:51:55.602Z,29.40
2022-08-17T10:52:58.937Z,29.40
2022-08-17T10:54:02.682Z,29.20
2022-08-17T10:55:15.014Z,29.10
2022-08-17T10:56:21.808Z,28.80
2022-08-17T10:57:40.778Z,29.00
2022-08-17T10:58:50.514Z,28.90
2022-08-17T10:59:55.326Z,28.90
2022-08-17T11:00:59.576Z,28.90
2022-08-17T11:02:18.983Z,28.80
2022-08-17T11:03:26.277Z,28.70
2022-08-17T11:04:49.972Z,28.80
2022-08-17T11:06:12.754Z,28.80
2022-08-17T11:07:36.251Z,28.90
2022-08-17T11:09:09.271Z,28.90
2022-08-17T11:10:42.223Z,29.00
2022-08-17T11:12:10.006Z,29.10
2022-08-17T11:13:32.388Z,29.10
2022-08-17T11:15:04.070Z,29.20
2022-08-17T11:16:37.897Z,29.30
2022-08-17T11:18:06.857Z,29.40
2022-08-17T11:19:38.606Z,29.30
2022-08-17T11:21:22.305Z,29.50
2022-08-17T11:22:57.883Z,29.70
2022-08-17T11:24:17.867Z,29.90
2022-08-17T11:25:32.391Z,30.00
2022-08-17T11:26:41.154Z,30.10
2022-08-17T11:27:49.657Z,30.20
2022-08-17T11:29:06.359Z,30.20
2022-08-17T11:30:15.574Z,30.20
2022-08-17T11:31:38.904Z,30.20
2022-08-17T11:32:48.818Z,30.20
2022-08-17T11:34:05.100Z,30.50
2022-08-17T11:35:16.149Z,30.30
2022-08-17T11:36:41.052Z,30.30
2022-08-17T11:37:59.931Z,30.30
2022-08-17T11:39:16.491Z,30.30
2022-08-17T11:40:37.466Z,30.30
2022-08-17T11:41:49.750Z,30.20
2022-08-17T11:43:17.726Z,30.10
2022-08-17T11:44:40.153Z,30.00
2022-08-17T11:46:12.826Z,29.90
2022-08-17T11:47:52.942Z,29.80
2022-08-17T11:49:39.399Z,29.60
2022-08-17T11:51:12.277Z,29.20
2022-08-17T11:52:38.944Z,29.10
2022-08-17T11:56:08.150Z,28.90
2022-08-17T11:57:48.116Z,28.90
2022-08-17T11:58:51.506Z,28.90
2022-08-17T11:59:59.942Z,28.90
2022-08-17T12:01:05.969Z,28.90
2022-08-17T12:02:31.697Z,29.10
2022-08-17T12:03:55.259Z,29.20
2022-08-17T12:05:12.174Z,29.30
2022-08-17T12:06:40.196Z,29.50
2022-08-17T12:07:47.805Z,29.60
2022-08-17T12:08:55.349Z,29.70
2022-08-17T12:10:00.449Z,29.90
2022-08-17T12:11:11.682Z,30.10
2022-08-17T12:12:21.409Z,30.30
2022-08-17T12:13:27.409Z,30.40
2022-08-17T12:15:08.455Z,30.50
2022-08-17T12:16:07.381Z,30.70
2022-08-17T12:17:14.112Z,30.60
2022-08-17T12:18:32.802Z,30.70
2022-08-17T12:19:39.410Z,30.80
2022-08-17T12:20:47.705Z,30.90
2022-08-17T12:21:59.199Z,31.20
2022-08-17T12:23:11.372Z,31.10
2022-08-17T12:24:29.400Z,31.10
2022-08-17T12:25:39.070Z,31.20
2022-08-17T12:26:44.168Z,31.30
2022-08-17T12:28:05.238Z,31.30
2022-08-17T12:29:18.395Z,31.30
2022-08-17T12:30:39.269Z,31.30
2022-08-17T12:31:47.326Z,31.30
2022-08-17T12:32:51.132Z,31.30
2022-08-17T12:33:54.138Z,31.40
2022-08-17T12:34:57.592Z,31.50
2022-08-17T12:36:03.463Z,31.50
2022-08-17T12:37:16.210Z,31.50
2022-08-17T12:38:26.650Z,31.60
2022-08-17T12:39:38.984Z,31.70
2022-08-17T12:40:54.217Z,31.80
2022-08-17T12:42:03.065Z,31.80
2022-08-17T12:43:09.258Z,31.90
2022-08-17T12:44:15.937Z,31.80
2022-08-17T12:45:24.916Z,31.80
2022-08-17T12:46:27.408Z,31.80
2022-08-17T12:47:32.390Z,31.70
2022-08-17T12:48:36.790Z,31.60
2022-08-17T12:49:43.506Z,31.50
2022-08-17T12:50:46.632Z,31.50
2022-08-17T12:51:51.819Z,31.40
2022-08-17T12:52:59.679Z,31.40
2022-08-17T12:54:04.478Z,31.30
2022-08-17T12:55:14.280Z,31.30
2022-08-17T12:56:16.829Z,31.30
2022-08-17T12:57:24.109Z,31.20
2022-08-17T12:58:31.780Z,31.10
2022-08-17T12:59:39.673Z,30.90
2022-08-17T13:00:50.805Z,30.80
2022-08-17T13:01:53.985Z,30.70
2022-08-17T13:03:05.882Z,30.60
2022-08-17T13:04:14.462Z,30.50
2022-08-17T13:05:25.045Z,30.30
2022-08-17T13:06:31.504Z,30.10
2022-08-17T13:07:42.462Z,30.10
2022-08-17T13:08:49.078Z,30.20
2022-08-17T13:09:51.833Z,30.10
2022-08-17T13:10:57.673Z,30.10
2022-08-17T13:12:01.316Z,30.10
2022-08-17T13:13:23.726Z,30.10
2022-08-17T13:14:27.100Z,30.10
2022-08-17T13:15:37.135Z,30.00
2022-08-17T13:16:39.985Z,29.90
2022-08-17T13:17:44.388Z,29.80
2022-08-17T13:18:53.242Z,29.70
2022-08-17T13:19:55.782Z,29.80
2022-08-17T13:21:01.302Z,29.70
2022-08-17T13:22:10.585Z,29.70
2022-08-17T13:23:21.930Z,29.70
2022-08-17T13:24:27.439Z,29.80
2022-08-17T13:25:32.199Z,29.80
2022-08-17T13:26:40.705Z,29.90
2022-08-17T13:27:44.811Z,30.00
2022-08-17T13:28:50.140Z,30.10
2022-08-17T13:29:58.248Z,30.20
2022-08-17T13:31:39.399Z,30.20
2022-08-17T13:32:57.957Z,30.30
2022-08-17T13:34:18.335Z,30.40
2022-08-17T13:35:52.388Z,30.50
2022-08-17T13:37:30.229Z,30.60
2022-08-17T13:38:47.426Z,30.70
2022-08-17T13:39:50.344Z,30.70
2022-08-17T13:40:54.950Z,30.80
2022-08-17T13:41:57.943Z,30.90
2022-08-17T13:43:03.408Z,31.00
2022-08-17T13:44:31.534Z,31.10
2022-08-17T13:45:51.272Z,31.00
2022-08-17T13:46:56.954Z,31.10
2022-08-17T13:48:08.891Z,31.10
2022-08-17T13:49:22.372Z,31.10
2022-08-17T13:50:24.896Z,31.20
2022-08-17T13:51:32.569Z,31.20
2022-08-17T13:52:39.491Z,31.30
2022-08-17T13:53:57.518Z,31.10
2022-08-17T13:55:05.358Z,31.10
2022-08-17T13:56:37.408Z,31.20
2022-08-17T13:57:37.289Z,31.30
2022-08-17T13:58:53.969Z,31.40
2022-08-17T14:00:11.563Z,31.70
2022-08-17T14:01:32.041Z,31.60
2022-08-17T14:02:35.333Z,31.80
2022-08-17T14:03:37.652Z,31.80
2022-08-17T14:04:44.102Z,31.80
2022-08-17T14:05:47.307Z,31.90
2022-08-17T14:06:54.404Z,31.90
2022-08-17T14:08:00.361Z,32.00
2022-08-17T14:09:04.121Z,32.10
2022-08-17T14:10:14.103Z,32.20
2022-08-17T14:11:18.722Z,32.20
2022-08-17T14:12:26.825Z,32.30
2022-08-17T14:13:30.057Z,32.30
2022-08-17T14:14:32.580Z,32.30
2022-08-17T14:15:54.513Z,32.40
2022-08-17T14:16:59.850Z,32.40
2022-08-17T14:18:02.355Z,32.50
2022-08-17T14:19:06.041Z,32.40
2022-08-17T14:20:14.142Z,32.40
2022-08-17T14:21:17.501Z,32.40
2022-08-17T14:22:27.006Z,32.30
2022-08-17T14:23:33.160Z,32.30
2022-08-17T14:24:44.467Z,32.10
2022-08-17T14:25:48.245Z,31.90
2022-08-17T14:26:53.038Z,31.80
2022-08-17T14:27:57.202Z,31.80
2022-08-17T14:28:59.788Z,31.70
2022-08-17T14:30:06.340Z,31.70
2022-08-17T14:31:10.640Z,31.70
2022-08-17T14:32:20.345Z,31.70
2022-08-17T14:33:24.907Z,31.70
2022-08-17T14:34:28.557Z,31.60
2022-08-17T14:35:33.204Z,31.60
2022-08-17T14:36:35.432Z,31.60
2022-08-17T14:37:39.788Z,31.70
2022-08-17T14:38:42.274Z,31.70
2022-08-17T14:39:46.262Z,31.70
2022-08-17T14:40:50.394Z,31.70
2022-08-17T14:41:54.030Z,31.70
2022-08-17T14:42:57.988Z,31.70
2022-08-17T14:44:01.227Z,31.80
2022-08-17T14:45:06.328Z,31.80
2022-08-17T14:46:29.749Z,31.80
2022-08-17T14:47:32.309Z,31.80
2022-08-17T14:48:38.351Z,31.70
2022-08-17T14:49:41.041Z,31.60
2022-08-17T14:50:46.417Z,31.60
2022-08-17T14:51:48.681Z,31.40
2022-08-17T14:52:52.511Z,31.40
2022-08-17T14:53:55.050Z,31.30
2022-08-17T14:54:59.260Z,30.70
2022-08-17T14:56:01.831Z,31.10
2022-08-17T14:57:23.734Z,31.10
2022-08-17T14:58:29.621Z,31.00
2022-08-17T14:59:32.170Z,30.90
2022-08-17T15:00:36.394Z,30.90
2022-08-17T15:01:39.081Z,31.00
2022-08-17T15:02:48.703Z,30.90
2022-08-17T15:03:54.087Z,30.90
2022-08-17T15:05:01.899Z,30.80
2022-08-17T15:06:07.069Z,30.70
2022-08-17T15:07:10.398Z,30.60
2022-08-17T15:08:16.316Z,30.50
2022-08-17T15:09:18.632Z,30.40
2022-08-17T15:10:23.416Z,30.40
2022-08-17T15:11:29.022Z,30.30
2022-08-17T15:12:33.594Z,30.40
2022-08-17T15:13:38.004Z,30.20
2022-08-17T15:14:55.329Z,30.20
2022-08-17T15:15:59.923Z,30.20
2022-08-17T15:17:03.342Z,30.20
2022-08-17T15:18:08.559Z,30.10